createdAt,value
2023-04-14T00:01:56.833Z,214932.00
2023-04-14T00:07:59.594Z,214883.00
2023-04-14T00:14:03.445Z,214827.00
2023-04-14T00:20:06.417Z,214753.00
2023-04-14T00:26:08.910Z,214725.00
2023-04-14T00:32:13.284Z,214675.00
2023-04-14T00:38:15.704Z,214640.00
2023-04-14T00:44:18.001Z,214584.00
2023-04-14T00:50:21.891Z,214551.00
2023-04-14T00:56:26.913Z,214537.00
2023-04-14T01:02:29.831Z,214531.00
2023-04-14T01:08:32.537Z,214502.00
2023-04-14T01:15:09.252Z,214446.00
2023-04-14T01:21:17.735Z,214446.00
2023-04-14T01:28:05.004Z,214424.00
2023-04-14T01:34:14.864Z,214355.00
2023-04-14T01:40:19.668Z,214321.00
2023-04-14T01:46:23.080Z,214280.00
2023-04-14T01:52:27.688Z,214244.00
2023-04-14T01:58:32.552Z,214185.00
2023-04-14T02:04:38.184Z,214177.00
2023-04-14T02:10:44.553Z,214127.00
2023-04-14T02:16:51.245Z,214052.00
2023-04-14T02:22:53.771Z,213975.00
2023-04-14T02:29:16.421Z,213922.00
2023-04-14T02:35:27.296Z,213852.00
2023-04-14T02:41:32.211Z,213830.00
2023-04-14T02:47:37.695Z,213811.00
2023-04-14T02:53:40.893Z,213778.00
2023-04-14T02:59:59.062Z,213714.00
2023-04-14T03:06:02.678Z,213645.00
2023-04-14T03:12:06.952Z,213645.00
2023-04-14T03:18:11.625Z,213611.00
2023-04-14T03:24:18.533Z,213577.00
2023-04-14T03:30:25.680Z,213603.00
2023-04-14T03:36:30.066Z,213611.00
2023-04-14T03:42:35.879Z,213653.00
2023-04-14T03:48:43.109Z,213688.00
2023-04-14T03:54:51.290Z,213816.00
2023-04-14T04:00:54.653Z,213983.00
2023-04-14T04:06:57.283Z,214155.00
2023-04-14T04:13:01.631Z,214363.00
2023-04-14T04:19:08.985Z,214551.00
2023-04-14T04:25:13.523Z,214737.00
2023-04-14T04:31:24.219Z,214827.00
2023-04-14T04:37:29.561Z,214903.00
2023-04-14T04:43:32.769Z,215092.00
2023-04-14T04:49:35.450Z,215168.00
2023-04-14T04:55:39.063Z,215295.00
2023-04-14T05:01:42.014Z,215742.00
2023-04-14T05:07:44.568Z,218023.00
2023-04-14T05:13:47.715Z,220435.00
2023-04-14T05:19:50.093Z,221595.00
2023-04-14T05:25:52.677Z,222388.00
2023-04-14T05:31:54.965Z,221931.00
2023-04-14T05:37:57.420Z,221638.00
2023-04-14T05:43:59.868Z,222440.00
2023-04-14T05:50:04.355Z,222324.00
2023-04-14T05:56:07.017Z,223361.00
2023-04-14T06:02:09.408Z,224188.00
2023-04-14T06:08:11.791Z,223852.00
2023-04-14T06:14:14.277Z,224503.00
2023-04-14T06:20:16.718Z,225422.00
2023-04-14T06:26:19.033Z,224556.00
2023-04-14T06:32:21.516Z,224301.00
2023-04-14T06:38:25.673Z,224638.00
2023-04-14T06:44:27.780Z,225247.00
2023-04-14T06:50:30.119Z,225121.00
2023-04-14T06:56:32.406Z,225730.00
2023-04-14T07:02:34.616Z,226164.00
2023-04-14T07:08:37.041Z,226469.00
2023-04-14T07:14:39.434Z,226119.00
2023-04-14T07:20:42.320Z,226301.00
2023-04-14T07:26:44.655Z,226745.00
2023-04-14T07:32:47.038Z,225714.00
2023-04-14T07:38:52.385Z,225534.00
2023-04-14T07:44:54.604Z,225768.00
2023-04-14T07:50:58.411Z,225663.00
2023-04-14T07:57:01.179Z,224323.00
2023-04-14T08:03:03.855Z,224662.00
2023-04-14T08:09:06.422Z,225596.00
2023-04-14T08:15:11.969Z,225414.00
2023-04-14T08:21:14.270Z,226180.00
2023-04-14T08:27:16.943Z,226140.00
2023-04-14T08:33:19.494Z,224309.00
2023-04-14T08:39:21.963Z,223150.00
2023-04-14T08:45:24.612Z,223226.00
2023-04-14T08:51:46.093Z,223137.00
2023-04-14T08:57:49.559Z,224091.00
2023-04-14T09:03:52.840Z,225014.00
2023-04-14T09:09:56.617Z,224632.00
2023-04-14T09:16:00.499Z,225814.00
2023-04-14T09:22:03.029Z,224954.00
2023-04-14T09:28:05.589Z,224121.00
2023-04-14T09:34:17.686Z,223388.00
2023-04-14T09:40:29.634Z,222891.00
2023-04-14T09:46:33.343Z,223628.00
2023-04-14T09:52:45.678Z,224681.00
2023-04-14T09:58:49.405Z,225129.00
2023-04-14T10:05:05.812Z,223852.00
2023-04-14T10:11:23.236Z,222521.00
2023-04-14T10:17:27.834Z,222029.00
2023-04-14T10:23:32.711Z,221565.00
2023-04-14T10:29:34.894Z,221492.00
2023-04-14T10:35:39.972Z,221275.00
2023-04-14T10:41:48.700Z,221098.00
2023-04-14T10:47:52.304Z,221150.00
2023-04-14T10:53:56.023Z,221500.00
2023-04-14T10:59:59.835Z,221595.00
2023-04-14T11:06:02.687Z,221684.00
2023-04-14T11:12:25.146Z,222045.00
2023-04-14T11:18:30.563Z,223196.00
2023-04-14T11:24:32.899Z,224016.00
2023-04-14T11:30:35.485Z,224398.00
2023-04-14T11:36:39.721Z,223404.00
2023-04-14T11:42:49.395Z,222640.00
2023-04-14T11:48:58.489Z,222492.00
2023-04-14T11:55:02.426Z,221904.00
2023-04-14T12:01:05.273Z,221595.00
2023-04-14T12:07:18.595Z,221624.00
2023-04-14T12:13:21.772Z,222302.00
2023-04-14T12:19:24.324Z,223094.00
2023-04-14T12:25:26.575Z,223396.00
2023-04-14T12:31:32.494Z,223204.00
2023-04-14T12:37:36.113Z,223286.00
2023-04-14T12:43:41.066Z,223286.00
2023-04-14T12:49:43.390Z,223440.00
2023-04-14T12:55:45.683Z,223143.00
2023-04-14T13:01:51.344Z,223309.00
2023-04-14T13:07:53.898Z,222707.00
2023-04-14T13:13:57.695Z,222626.00
2023-04-14T13:20:00.255Z,222264.00
2023-04-14T13:26:02.804Z,221939.00
2023-04-14T13:32:09.504Z,221858.00
2023-04-14T13:38:11.965Z,221765.00
2023-04-14T13:44:14.126Z,221742.00
2023-04-14T13:50:17.246Z,221728.00
2023-04-14T13:56:23.126Z,221793.00
2023-04-14T14:02:25.450Z,221654.00
2023-04-14T14:08:27.870Z,221779.00
2023-04-14T14:14:30.153Z,221969.00
2023-04-14T14:20:32.940Z,222234.00
2023-04-14T14:26:35.249Z,222426.00
2023-04-14T14:32:38.271Z,222220.00
2023-04-14T14:38:40.885Z,222087.00
2023-04-14T14:44:43.382Z,221955.00
2023-04-14T14:50:46.058Z,221830.00
2023-04-14T14:56:48.298Z,221692.00
2023-04-14T15:02:51.220Z,221595.00
2023-04-14T15:08:54.075Z,221668.00
2023-04-14T15:14:56.660Z,221609.00
2023-04-14T15:20:58.860Z,221538.00
2023-04-14T15:27:03.154Z,221538.00
2023-04-14T15:33:05.991Z,221565.00
2023-04-14T15:39:08.545Z,221470.00
2023-04-14T15:45:12.069Z,221373.00
2023-04-14T15:51:14.627Z,221267.00
2023-04-14T15:57:17.444Z,221199.00
2023-04-14T16:03:20.076Z,221090.00
2023-04-14T16:09:22.596Z,221003.00
2023-04-14T16:15:25.724Z,220944.00
2023-04-14T16:21:28.137Z,220892.00
2023-04-14T16:27:30.811Z,220645.00
2023-04-14T16:33:33.285Z,220288.00
2023-04-14T16:39:35.874Z,219580.00
2023-04-14T16:45:38.062Z,219239.00
2023-04-14T16:51:40.613Z,218939.00
2023-04-14T16:57:43.051Z,218723.00
2023-04-14T17:03:45.485Z,218579.00
2023-04-14T17:09:48.371Z,218501.00
2023-04-14T17:15:58.797Z,218409.00
2023-04-14T17:22:10.924Z,218296.00
2023-04-14T17:28:13.179Z,218250.00
2023-04-14T17:34:18.838Z,218214.00
2023-04-14T17:40:21.268Z,218037.00
2023-04-14T17:46:33.762Z,217765.00
2023-04-14T17:52:36.344Z,217510.00
2023-04-14T17:58:38.855Z,217433.00
2023-04-14T18:04:41.648Z,217419.00
2023-04-14T18:10:45.651Z,217384.00
2023-04-14T18:16:48.380Z,217392.00
2023-04-14T18:22:52.938Z,217348.00
2023-04-14T18:28:56.633Z,217291.00
2023-04-14T18:34:59.433Z,217263.00
2023-04-14T18:41:04.187Z,217277.00
2023-04-14T18:47:06.587Z,217249.00
2023-04-14T18:53:09.584Z,217263.00
2023-04-14T18:59:12.395Z,217176.00
2023-04-14T19:05:17.932Z,217143.00
2023-04-14T19:11:21.121Z,217093.00
2023-04-14T19:17:23.833Z,217071.00
2023-04-14T19:23:26.306Z,217044.00
2023-04-14T19:29:28.832Z,217038.00
2023-04-14T19:35:31.480Z,217016.00
2023-04-14T19:41:34.128Z,217071.00
2023-04-14T19:47:36.822Z,217087.00
2023-04-14T19:53:39.494Z,217079.00
2023-04-14T19:59:41.896Z,217022.00
2023-04-14T20:05:44.547Z,217044.00
2023-04-14T20:11:47.378Z,217000.00
2023-04-14T20:17:49.722Z,216956.00
2023-04-14T20:23:51.908Z,216942.00
2023-04-14T20:29:54.061Z,216860.00
2023-04-14T20:35:56.804Z,216840.00
2023-04-14T20:41:59.271Z,216840.00
2023-04-14T20:48:01.996Z,216788.00
2023-04-14T20:54:04.698Z,216733.00
2023-04-14T21:00:10.892Z,216703.00
2023-04-14T21:06:13.425Z,216628.00
2023-04-14T21:12:17.059Z,216626.00
2023-04-14T21:18:19.595Z,216613.00
2023-04-14T21:24:21.907Z,216628.00
2023-04-14T21:30:24.170Z,216613.00
2023-04-14T21:36:26.740Z,216543.00
2023-04-14T21:42:29.324Z,216507.00
2023-04-14T21:48:31.832Z,216507.00
2023-04-14T21:54:35.933Z,216535.00
2023-04-14T22:00:38.264Z,216577.00
2023-04-14T22:06:40.824Z,216571.00
2023-04-14T22:12:44.491Z,216577.00
2023-04-14T22:18:47.123Z,216585.00
2023-04-14T22:24:51.021Z,216599.00
2023-04-14T22:30:53.436Z,216607.00
2023-04-14T22:36:55.932Z,216647.00
2023-04-14T22:42:58.266Z,216639.00
2023-04-14T22:49:00.830Z,216647.00
2023-04-14T22:55:03.695Z,216661.00
2023-04-14T23:01:21.499Z,216628.00
2023-04-14T23:07:25.007Z,216620.00
2023-04-14T23:13:27.961Z,216639.00
2023-04-14T23:19:30.422Z,216647.00
2023-04-14T23:25:33.048Z,216653.00
2023-04-14T23:31:35.324Z,216669.00
2023-04-14T23:37:37.810Z,216628.00
2023-04-14T23:43:40.496Z,216599.00
2023-04-14T23:49:42.997Z,216613.00
2023-04-14T23:55:45.375Z,216599.00
